createdAt,value
2022-09-28T00:01:06.751Z,100.00
2022-09-28T00:03:33.297Z,100.00
2022-09-28T00:06:06.097Z,100.00
2022-09-28T00:08:33.229Z,100.00
2022-09-28T00:10:59.640Z,100.00
2022-09-28T00:13:26.146Z,100.00
2022-09-28T00:16:10.371Z,100.00
2022-09-28T00:18:36.915Z,100.00
2022-09-28T00:21:09.983Z,100.00
2022-09-28T00:23:59.812Z,100.00
2022-09-28T00:26:27.985Z,100.00
2022-09-28T00:28:55.948Z,100.00
2022-09-28T00:31:23.218Z,100.00
2022-09-28T00:33:51.408Z,100.00
2022-09-28T00:36:18.256Z,100.00
2022-09-28T00:38:44.691Z,100.00
2022-09-28T00:41:11.619Z,100.00
2022-09-28T00:43:38.375Z,100.00
2022-09-28T00:46:15.227Z,100.00
2022-09-28T00:48:56.688Z,100.00
2022-09-28T00:51:24.922Z,100.00
2022-09-28T00:53:52.953Z,100.00
2022-09-28T00:56:23.811Z,100.00
2022-09-28T00:58:53.210Z,100.00
2022-09-28T01:01:19.635Z,100.00
2022-09-28T01:03:48.668Z,100.00
2022-09-28T01:06:22.446Z,100.00
2022-09-28T01:08:52.720Z,100.00
2022-09-28T01:11:19.533Z,100.00
2022-09-28T01:13:48.244Z,100.00
2022-09-28T01:16:36.659Z,100.00
2022-09-28T01:19:59.798Z,100.00
2022-09-28T01:22:51.076Z,100.00
2022-09-28T01:25:38.275Z,100.00
2022-09-28T01:28:09.227Z,100.00
2022-09-28T01:30:43.545Z,100.00
2022-09-28T01:33:22.563Z,100.00
2022-09-28T01:35:55.553Z,100.00
2022-09-28T01:38:28.443Z,100.00
2022-09-28T01:40:58.004Z,100.00
2022-09-28T01:43:27.135Z,100.00
2022-09-28T01:46:06.717Z,100.00
2022-09-28T01:48:45.097Z,100.00
2022-09-28T01:51:21.657Z,100.00
2022-09-28T01:53:58.892Z,100.00
2022-09-28T01:56:33.382Z,100.00
2022-09-28T01:59:11.786Z,100.00
2022-09-28T02:01:47.694Z,100.00
2022-09-28T02:04:20.973Z,100.00
2022-09-28T02:07:34.718Z,100.00
2022-09-28T02:10:11.231Z,100.00
2022-09-28T02:12:43.746Z,100.00
2022-09-28T02:15:23.003Z,100.00
2022-09-28T02:17:49.978Z,100.00
2022-09-28T02:20:17.266Z,100.00
2022-09-28T02:22:47.912Z,100.00
2022-09-28T02:25:39.391Z,100.00
2022-09-28T02:28:09.694Z,100.00
2022-09-28T02:30:39.338Z,100.00
2022-09-28T02:33:21.525Z,100.00
2022-09-28T02:35:48.041Z,100.00
2022-09-28T02:38:15.422Z,100.00
2022-09-28T02:40:47.447Z,100.00
2022-09-28T02:43:24.416Z,100.00
2022-09-28T02:46:06.090Z,100.00
2022-09-28T02:49:17.295Z,100.00
2022-09-28T02:52:13.938Z,100.00
2022-09-28T02:55:05.276Z,100.00
2022-09-28T02:57:50.677Z,100.00
2022-09-28T03:00:22.728Z,100.00
2022-09-28T03:03:03.692Z,100.00
2022-09-28T03:05:47.374Z,100.00
2022-09-28T03:08:16.869Z,100.00
2022-09-28T03:10:49.637Z,100.00
2022-09-28T03:13:16.678Z,100.00
2022-09-28T03:15:48.548Z,100.00
2022-09-28T03:18:15.419Z,100.00
2022-09-28T03:20:42.360Z,100.00
2022-09-28T03:23:25.246Z,100.00
2022-09-28T03:25:52.299Z,100.00
2022-09-28T03:28:18.665Z,100.00
2022-09-28T03:30:45.320Z,100.00
2022-09-28T03:33:11.852Z,100.00
2022-09-28T03:35:38.420Z,100.00
2022-09-28T03:38:04.969Z,100.00
2022-09-28T03:40:33.707Z,100.00
2022-09-28T03:43:00.908Z,100.00
2022-09-28T03:45:27.870Z,100.00
2022-09-28T03:47:54.623Z,100.00
2022-09-28T03:50:20.969Z,100.00
2022-09-28T03:52:48.164Z,100.00
2022-09-28T03:55:14.749Z,100.00
2022-09-28T03:57:41.434Z,100.00
2022-09-28T04:00:09.208Z,100.00
2022-09-28T04:02:41.554Z,100.00
2022-09-28T04:05:09.209Z,100.00
2022-09-28T04:07:37.158Z,100.00
2022-09-28T04:10:03.740Z,100.00
2022-09-28T04:12:30.929Z,100.00
2022-09-28T04:14:57.284Z,100.00
2022-09-28T04:17:23.822Z,100.00
2022-09-28T04:19:50.646Z,100.00
2022-09-28T04:22:37.674Z,100.00
2022-09-28T04:25:04.695Z,100.00
2022-09-28T04:27:49.839Z,100.00
2022-09-28T04:30:16.829Z,100.00
2022-09-28T04:32:48.152Z,100.00
2022-09-28T04:35:15.119Z,100.00
2022-09-28T04:37:41.790Z,100.00
2022-09-28T04:40:08.743Z,100.00
2022-09-28T04:42:36.606Z,100.00
2022-09-28T04:45:04.694Z,100.00
2022-09-28T04:47:32.450Z,100.00
2022-09-28T04:50:17.341Z,100.00
2022-09-28T04:53:02.226Z,100.00
2022-09-28T04:55:32.272Z,100.00
2022-09-28T04:58:02.406Z,100.00
2022-09-28T05:00:29.901Z,100.00
2022-09-28T05:03:06.507Z,100.00
2022-09-28T05:05:59.007Z,100.00
2022-09-28T05:08:51.857Z,100.00
2022-09-28T05:11:19.782Z,100.00
2022-09-28T05:13:46.268Z,100.00
2022-09-28T05:16:16.285Z,100.00
2022-09-28T05:19:01.501Z,100.00
2022-09-28T05:21:29.885Z,100.00
2022-09-28T05:23:58.167Z,100.00
2022-09-28T05:26:25.006Z,100.00
2022-09-28T05:28:51.444Z,100.00
2022-09-28T05:31:37.959Z,100.00
2022-09-28T05:34:04.401Z,100.00
2022-09-28T05:36:32.452Z,100.00
2022-09-28T05:38:58.852Z,100.00
2022-09-28T05:41:25.193Z,100.00
2022-09-28T05:43:52.541Z,100.00
2022-09-28T05:46:20.134Z,100.00
2022-09-28T05:48:47.886Z,100.00
2022-09-28T05:51:14.316Z,100.00
2022-09-28T05:53:40.720Z,100.00
2022-09-28T05:56:07.174Z,100.00
2022-09-28T05:58:35.631Z,100.00
2022-09-28T06:01:02.402Z,100.00
2022-09-28T06:03:29.986Z,100.00
2022-09-28T06:05:56.410Z,100.00
2022-09-28T06:08:23.922Z,100.00
2022-09-28T06:11:01.437Z,100.00
2022-09-28T06:13:29.113Z,100.00
2022-09-28T06:15:55.878Z,100.00
2022-09-28T06:18:22.304Z,100.00
2022-09-28T06:21:12.779Z,100.00
2022-09-28T06:23:49.005Z,100.00
2022-09-28T06:26:16.781Z,100.00
2022-09-28T06:28:44.487Z,100.00
2022-09-28T06:31:11.072Z,100.00
2022-09-28T06:33:44.673Z,100.00
2022-09-28T06:36:11.166Z,100.00
2022-09-28T06:38:38.042Z,100.00
2022-09-28T06:41:06.533Z,100.00
2022-09-28T06:43:34.895Z,100.00
2022-09-28T06:46:21.441Z,100.00
2022-09-28T06:48:51.115Z,100.00
2022-09-28T06:51:39.620Z,100.00
2022-09-28T06:54:18.343Z,100.00
2022-09-28T06:57:20.495Z,100.00
2022-09-28T06:59:47.109Z,100.00
2022-09-28T07:02:16.532Z,100.00
2022-09-28T07:05:13.418Z,100.00
2022-09-28T07:07:55.211Z,100.00
2022-09-28T07:10:48.882Z,100.00
2022-09-28T07:13:48.709Z,100.00
2022-09-28T07:16:13.899Z,100.00
2022-09-28T07:18:40.390Z,100.00
2022-09-28T07:21:08.178Z,100.00
2022-09-28T07:23:46.682Z,100.00
2022-09-28T07:26:24.610Z,100.00
2022-09-28T07:29:13.063Z,100.00
2022-09-28T07:31:53.659Z,100.00
2022-09-28T07:34:44.413Z,100.00
2022-09-28T07:37:15.777Z,100.00
2022-09-28T07:40:00.869Z,100.00
2022-09-28T07:42:30.989Z,100.00
2022-09-28T07:44:58.436Z,100.00
2022-09-28T07:47:34.568Z,100.00
2022-09-28T07:50:21.095Z,100.00
2022-09-28T07:53:16.846Z,100.00
2022-09-28T07:56:08.660Z,100.00
2022-09-28T07:58:41.934Z,100.00
2022-09-28T08:01:26.748Z,100.00
2022-09-28T08:03:56.279Z,100.00
2022-09-28T08:06:23.071Z,100.00
2022-09-28T08:08:50.187Z,100.00
2022-09-28T08:11:19.328Z,100.00
2022-09-28T08:14:14.987Z,100.00
2022-09-28T08:16:53.774Z,100.00
2022-09-28T08:19:53.361Z,100.00
2022-09-28T08:22:20.141Z,100.00
2022-09-28T08:24:49.725Z,100.00
2022-09-28T08:27:18.298Z,100.00
2022-09-28T08:29:44.765Z,100.00
2022-09-28T08:32:32.691Z,100.00
2022-09-28T08:35:33.986Z,100.00
2022-09-28T08:38:13.300Z,100.00
2022-09-28T08:41:17.605Z,100.00
2022-09-28T08:44:08.209Z,100.00
2022-09-28T08:47:33.397Z,100.00
2022-09-28T08:50:24.084Z,100.00
2022-09-28T08:53:31.283Z,100.00
2022-09-28T08:56:27.596Z,100.00
2022-09-28T08:59:00.300Z,100.00
2022-09-28T09:01:34.507Z,100.00
2022-09-28T09:04:06.874Z,100.00
2022-09-28T09:07:11.622Z,100.00
2022-09-28T09:10:01.302Z,100.00
2022-09-28T09:12:44.988Z,100.00
2022-09-28T09:15:48.081Z,100.00
2022-09-28T09:18:37.384Z,100.00
2022-09-28T09:22:05.165Z,100.00
2022-09-28T09:24:46.481Z,100.00
2022-09-28T09:27:46.037Z,100.00
2022-09-28T09:30:20.712Z,100.00
2022-09-28T09:33:28.599Z,100.00
2022-09-28T09:36:38.728Z,99.32
2022-09-28T09:39:47.683Z,98.98
2022-09-28T09:42:58.792Z,97.49
2022-09-28T09:46:05.916Z,96.67
2022-09-28T09:48:55.934Z,95.86
2022-09-28T09:51:45.692Z,94.27
2022-09-28T09:54:29.104Z,93.45
2022-09-28T09:57:21.609Z,93.05
2022-09-28T10:00:02.077Z,94.68
2022-09-28T10:02:57.100Z,95.03
2022-09-28T10:05:35.762Z,94.54
2022-09-28T10:08:08.277Z,94.55
2022-09-28T10:11:02.492Z,93.59
2022-09-28T10:13:32.074Z,93.40
2022-09-28T10:16:01.696Z,93.85
2022-09-28T10:18:38.962Z,93.26
2022-09-28T10:21:46.815Z,92.90
2022-09-28T10:24:38.472Z,91.77
2022-09-28T10:27:14.424Z,93.46
2022-09-28T10:30:01.872Z,89.89
2022-09-28T10:32:39.949Z,89.01
2022-09-28T10:35:18.894Z,88.57
2022-09-28T10:37:54.138Z,88.11
2022-09-28T10:40:46.688Z,89.57
2022-09-28T10:43:26.840Z,90.52
2022-09-28T10:46:09.898Z,92.18
2022-09-28T10:49:11.938Z,94.27
2022-09-28T10:51:51.577Z,95.56
2022-09-28T10:54:29.469Z,96.04
2022-09-28T10:56:58.629Z,96.26
2022-09-28T10:59:41.405Z,96.39
2022-09-28T11:02:35.742Z,95.51
2022-09-28T11:05:27.812Z,94.24
2022-09-28T11:07:59.782Z,94.42
2022-09-28T11:10:37.166Z,93.88
2022-09-28T11:13:11.083Z,93.58
2022-09-28T11:15:43.237Z,94.11
2022-09-28T11:18:25.494Z,92.09
2022-09-28T11:20:52.777Z,91.93
2022-09-28T11:23:26.423Z,92.14
2022-09-28T11:26:02.538Z,92.58
2022-09-28T11:28:33.129Z,92.83
2022-09-28T11:31:03.772Z,93.28
2022-09-28T11:33:51.097Z,93.58
2022-09-28T11:37:13.572Z,94.54
2022-09-28T11:40:04.510Z,95.14
2022-09-28T11:42:46.576Z,100.00
2022-09-28T11:45:31.597Z,100.00
2022-09-28T11:48:02.558Z,99.45
2022-09-28T11:50:47.199Z,100.00
2022-09-28T11:53:38.520Z,97.58
2022-09-28T11:56:31.882Z,95.33
2022-09-28T11:59:04.673Z,95.25
2022-09-28T12:01:47.098Z,95.51
2022-09-28T12:04:39.748Z,95.35
2022-09-28T12:07:15.914Z,95.69
2022-09-28T12:10:00.817Z,96.55
2022-09-28T12:13:04.486Z,96.56
2022-09-28T12:16:07.751Z,95.58
2022-09-28T12:18:45.031Z,95.17
2022-09-28T12:21:30.136Z,96.30
2022-09-28T12:24:21.056Z,95.36
2022-09-28T12:26:53.976Z,96.15
2022-09-28T12:29:24.459Z,94.71
2022-09-28T12:31:58.426Z,93.64
2022-09-28T12:34:25.416Z,92.89
2022-09-28T12:37:08.193Z,92.05
2022-09-28T12:40:00.056Z,90.85
2022-09-28T12:42:57.767Z,92.44
2022-09-28T12:46:06.737Z,92.34
2022-09-28T12:48:57.201Z,88.76
2022-09-28T12:52:00.263Z,88.50
2022-09-28T12:54:47.249Z,87.92
2022-09-28T12:57:39.251Z,85.64
2022-09-28T13:00:13.190Z,86.24
2022-09-28T13:02:42.378Z,84.71
2022-09-28T13:05:44.235Z,85.55
2022-09-28T13:08:25.306Z,87.41
2022-09-28T13:11:20.771Z,87.60
2022-09-28T13:14:03.872Z,85.61
2022-09-28T13:16:37.013Z,86.02
2022-09-28T13:19:08.108Z,87.29
2022-09-28T13:22:09.696Z,88.75
2022-09-28T13:24:38.489Z,89.89
2022-09-28T13:27:13.102Z,89.95
2022-09-28T13:29:40.656Z,90.36
2022-09-28T13:32:08.466Z,90.23
2022-09-28T13:34:37.011Z,89.91
2022-09-28T13:37:09.861Z,89.38
2022-09-28T13:39:45.426Z,89.66
2022-09-28T13:42:46.035Z,90.68
2022-09-28T13:45:18.273Z,90.40
2022-09-28T13:48:04.695Z,89.30
2022-09-28T13:50:31.005Z,89.01
2022-09-28T13:53:09.467Z,89.23
2022-09-28T13:55:56.101Z,89.46
2022-09-28T13:58:25.446Z,88.60
2022-09-28T14:01:11.606Z,86.21
2022-09-28T14:03:53.800Z,87.82
2022-09-28T14:06:23.080Z,86.46
2022-09-28T14:08:52.465Z,86.83
2022-09-28T14:11:34.274Z,88.46
2022-09-28T14:14:14.065Z,88.30
2022-09-28T14:16:42.121Z,87.73
2022-09-28T14:19:15.655Z,88.30
2022-09-28T14:22:13.406Z,86.95
2022-09-28T14:24:55.401Z,87.29
2022-09-28T14:27:37.017Z,87.67
2022-09-28T14:30:18.483Z,87.65
2022-09-28T14:32:59.320Z,87.28
2022-09-28T14:35:33.760Z,87.17
2022-09-28T14:38:32.029Z,87.41
2022-09-28T14:41:10.830Z,86.97
2022-09-28T14:44:02.731Z,87.15
2022-09-28T14:46:33.565Z,88.24
2022-09-28T14:49:05.747Z,87.60
2022-09-28T14:51:34.706Z,87.73
2022-09-28T14:54:13.018Z,88.10
2022-09-28T14:56:45.343Z,87.93
2022-09-28T14:59:25.468Z,87.55
2022-09-28T15:02:01.217Z,87.96
2022-09-28T15:04:29.962Z,88.86
2022-09-28T15:06:58.015Z,89.29
2022-09-28T15:09:32.884Z,88.96
2022-09-28T15:12:21.701Z,89.80
2022-09-28T15:14:58.582Z,90.03
2022-09-28T15:17:52.367Z,89.69
2022-09-28T15:20:31.496Z,89.71
2022-09-28T15:22:59.961Z,90.11
2022-09-28T15:25:28.976Z,91.15
2022-09-28T15:28:04.455Z,91.15
2022-09-28T15:30:32.918Z,91.96
2022-09-28T15:33:19.758Z,92.25
2022-09-28T15:36:01.982Z,92.62
2022-09-28T15:38:29.317Z,92.36
2022-09-28T15:40:56.050Z,93.56
2022-09-28T15:43:28.982Z,93.95
2022-09-28T15:46:13.158Z,94.39
2022-09-28T15:48:51.973Z,95.12
2022-09-28T15:51:21.303Z,95.25
2022-09-28T15:54:06.462Z,94.29
2022-09-28T15:56:52.019Z,92.60
2022-09-28T15:59:30.674Z,91.96
2022-09-28T16:02:11.682Z,92.90
2022-09-28T16:04:42.930Z,93.36
2022-09-28T16:07:09.180Z,92.60
2022-09-28T16:10:08.485Z,91.26
2022-09-28T16:12:41.568Z,91.80
2022-09-28T16:15:23.269Z,93.99
2022-09-28T16:17:56.192Z,94.11
2022-09-28T16:20:39.640Z,93.51
2022-09-28T16:23:29.104Z,93.71
2022-09-28T16:26:00.404Z,92.26
2022-09-28T16:28:51.837Z,92.54
2022-09-28T16:31:18.197Z,92.59
2022-09-28T16:33:54.026Z,92.96
2022-09-28T16:36:22.304Z,93.16
2022-09-28T16:38:49.505Z,93.05
2022-09-28T16:41:22.665Z,92.04
2022-09-28T16:43:54.937Z,92.79
2022-09-28T16:46:32.599Z,92.51
2022-09-28T16:49:02.236Z,93.13
2022-09-28T16:51:28.973Z,95.75
2022-09-28T16:54:19.246Z,96.75
2022-09-28T16:56:45.682Z,98.33
2022-09-28T16:59:13.951Z,99.58
2022-09-28T17:01:43.575Z,100.00
2022-09-28T17:04:10.158Z,100.00
2022-09-28T17:06:36.786Z,100.00
2022-09-28T17:09:06.773Z,100.00
2022-09-28T17:11:33.467Z,100.00
2022-09-28T17:14:00.123Z,100.00
2022-09-28T17:16:57.383Z,100.00
2022-09-28T17:19:28.555Z,100.00
2022-09-28T17:21:54.921Z,100.00
2022-09-28T17:24:21.734Z,100.00
2022-09-28T17:26:50.796Z,100.00
2022-09-28T17:29:18.822Z,100.00
2022-09-28T17:31:46.796Z,100.00
2022-09-28T17:34:15.915Z,100.00
2022-09-28T17:36:43.092Z,100.00
2022-09-28T17:39:14.385Z,100.00
2022-09-28T17:41:41.034Z,100.00
2022-09-28T17:44:07.674Z,100.00
2022-09-28T17:46:36.959Z,100.00
2022-09-28T17:49:05.107Z,100.00
2022-09-28T17:51:34.560Z,100.00
2022-09-28T17:54:01.716Z,100.00
2022-09-28T17:56:32.170Z,100.00
2022-09-28T17:59:01.232Z,100.00
2022-09-28T18:01:33.940Z,100.00
2022-09-28T18:04:02.514Z,100.00
2022-09-28T18:06:29.066Z,100.00
2022-09-28T18:08:55.466Z,100.00
2022-09-28T18:11:22.382Z,100.00
2022-09-28T18:13:48.747Z,100.00
2022-09-28T18:16:15.459Z,100.00
2022-09-28T18:18:41.952Z,100.00
2022-09-28T18:21:09.045Z,100.00
2022-09-28T18:23:36.837Z,100.00
2022-09-28T18:26:03.836Z,100.00
2022-09-28T18:28:30.372Z,100.00
2022-09-28T18:30:57.776Z,100.00
2022-09-28T18:33:24.199Z,100.00
2022-09-28T18:35:52.691Z,100.00
2022-09-28T18:38:19.226Z,100.00
2022-09-28T18:40:46.323Z,100.00
2022-09-28T18:43:12.734Z,100.00
2022-09-28T18:45:39.179Z,100.00
2022-09-28T18:48:05.692Z,100.00
2022-09-28T18:50:32.121Z,100.00
2022-09-28T18:53:11.315Z,100.00
2022-09-28T18:55:39.570Z,100.00
2022-09-28T18:58:07.357Z,100.00
2022-09-28T19:00:33.898Z,100.00
2022-09-28T19:03:01.891Z,100.00
2022-09-28T19:05:28.596Z,100.00
2022-09-28T19:07:55.124Z,100.00
2022-09-28T19:10:21.532Z,100.00
2022-09-28T19:12:47.929Z,100.00
2022-09-28T19:15:14.423Z,100.00
2022-09-28T19:17:40.790Z,100.00
2022-09-28T19:20:07.590Z,100.00
2022-09-28T19:22:33.985Z,100.00
2022-09-28T19:25:00.459Z,100.00
2022-09-28T19:27:26.822Z,100.00
2022-09-28T19:29:53.178Z,100.00
2022-09-28T19:32:19.542Z,100.00
2022-09-28T19:34:45.889Z,100.00
2022-09-28T19:37:12.304Z,100.00
2022-09-28T19:39:38.678Z,99.29
2022-09-28T19:42:05.203Z,98.74
2022-09-28T19:44:33.214Z,98.02
2022-09-28T19:47:07.075Z,97.14
2022-09-28T19:49:38.443Z,97.30
2022-09-28T19:52:15.344Z,96.94
2022-09-28T19:54:48.446Z,96.52
2022-09-28T19:57:15.853Z,96.23
2022-09-28T19:59:42.539Z,96.76
2022-09-28T20:02:10.929Z,96.78
2022-09-28T20:04:37.380Z,96.97
2022-09-28T20:07:04.206Z,96.78
2022-09-28T20:09:31.709Z,96.40
2022-09-28T20:11:58.162Z,96.63
2022-09-28T20:14:26.437Z,96.35
2022-09-28T20:16:57.040Z,96.54
2022-09-28T20:19:23.446Z,97.36
2022-09-28T20:21:50.090Z,97.70
2022-09-28T20:24:17.144Z,97.63
2022-09-28T20:26:44.309Z,97.62
2022-09-28T20:29:10.794Z,97.36
2022-09-28T20:31:37.772Z,98.05
2022-09-28T20:34:05.492Z,97.47
2022-09-28T20:36:32.278Z,97.43
2022-09-28T20:39:02.739Z,97.35
2022-09-28T20:41:36.694Z,97.06
2022-09-28T20:44:05.955Z,97.14
2022-09-28T20:46:34.671Z,97.38
2022-09-28T20:49:01.322Z,96.75
2022-09-28T20:51:27.744Z,96.72
2022-09-28T20:53:56.171Z,96.65
2022-09-28T20:56:24.102Z,96.40
2022-09-28T20:58:51.673Z,96.38
2022-09-28T21:01:21.462Z,96.77
2022-09-28T21:03:50.492Z,97.21
2022-09-28T21:06:18.012Z,97.19
2022-09-28T21:08:45.739Z,97.25
2022-09-28T21:11:13.988Z,97.29
2022-09-28T21:13:42.868Z,97.87
2022-09-28T21:16:11.210Z,97.86
2022-09-28T21:18:38.618Z,97.52
2022-09-28T21:21:07.241Z,97.82
2022-09-28T21:23:34.410Z,97.02
2022-09-28T21:26:05.791Z,96.86
2022-09-28T21:28:32.319Z,97.04
2022-09-28T21:30:59.326Z,96.12
2022-09-28T21:33:25.775Z,96.12
2022-09-28T21:35:52.212Z,96.23
2022-09-28T21:38:18.636Z,96.34
2022-09-28T21:40:45.249Z,96.30
2022-09-28T21:43:11.714Z,96.27
2022-09-28T21:45:39.493Z,96.00
2022-09-28T21:48:05.833Z,95.88
2022-09-28T21:50:32.507Z,96.28
2022-09-28T21:53:00.121Z,96.14
2022-09-28T21:55:26.482Z,95.89
2022-09-28T21:57:52.828Z,95.78
2022-09-28T22:00:23.144Z,95.92
2022-09-28T22:02:51.015Z,95.49
2022-09-28T22:05:17.870Z,95.12
2022-09-28T22:07:44.396Z,94.17
2022-09-28T22:10:13.456Z,94.77
2022-09-28T22:12:39.906Z,94.95
2022-09-28T22:15:07.008Z,96.06
2022-09-28T22:17:33.518Z,96.35
2022-09-28T22:20:00.037Z,95.49
2022-09-28T22:22:29.190Z,97.53
2022-09-28T22:24:56.106Z,97.75
2022-09-28T22:27:23.909Z,96.05
2022-09-28T22:29:50.983Z,96.81
2022-09-28T22:32:17.416Z,96.80
2022-09-28T22:34:43.817Z,96.02
2022-09-28T22:37:10.457Z,95.67
2022-09-28T22:39:37.959Z,95.41
2022-09-28T22:42:04.657Z,94.25
2022-09-28T22:44:31.045Z,94.69
2022-09-28T22:46:57.389Z,94.57
2022-09-28T22:49:24.340Z,94.99
2022-09-28T22:51:50.694Z,94.49
2022-09-28T22:54:17.166Z,95.29
2022-09-28T22:56:44.090Z,94.25
2022-09-28T22:59:11.540Z,94.35
2022-09-28T23:01:38.213Z,94.50
2022-09-28T23:04:04.667Z,94.71
2022-09-28T23:06:31.046Z,95.13
2022-09-28T23:08:57.486Z,95.81
2022-09-28T23:11:23.852Z,95.96
2022-09-28T23:13:55.830Z,95.76
2022-09-28T23:16:24.799Z,95.75
2022-09-28T23:18:52.239Z,95.63
2022-09-28T23:21:20.994Z,95.11
2022-09-28T23:23:53.382Z,95.87
2022-09-28T23:26:25.937Z,96.90
2022-09-28T23:28:53.318Z,96.94
2022-09-28T23:31:28.267Z,98.08
2022-09-28T23:34:06.347Z,97.57
2022-09-28T23:36:33.332Z,97.71
2022-09-28T23:38:59.826Z,98.34
2022-09-28T23:41:26.357Z,97.76
2022-09-28T23:43:52.712Z,97.69
2022-09-28T23:46:21.055Z,98.07
2022-09-28T23:48:48.160Z,98.41
2022-09-28T23:51:14.601Z,98.15
2022-09-28T23:53:40.957Z,98.12
2022-09-28T23:56:07.333Z,98.60
2022-09-28T23:58:33.726Z,97.81
